SIA27 EDDF-WSSS
Flight info
| Callsign | SIA27 |
|---|---|
| Flight time | N/A |
| Altitude | 31000 |
| Route | SULUS6F/25C SULUS Z650 VEMUT DCT DITIS DCT ALAMU DCT BUDOP DCT LUGEB DCT UDROS UM859 KARDE UL851 TBN UR317 REBLO P130 MAMED B449 RANAH L750 ZB G202 RK P628 IBANI L510 GIVAL P628 VPL Y503 RINBA Y507 MAKNA Y511 TOPOR A464 ARAMA ARAMA1A |
| Aircraft | B77W/H-SDE1E2E3FGHIJ2J3J4J5M1RWXY/LB1D1 |
Departure
| Time | 2026-04-17 12:44 |
|---|---|
| Airport | Frankfurt Main Airport (EDDF) |
Arrival
| Time | N/A |
|---|---|
| Airport | Singapore Changi Airport (WSSS) |
| Time | Latitude | Longitude | Altitude | Speed | Heading |
|---|---|---|---|---|---|
| 2026-04-17 12:12 | 50.04718 | 8.57538 | 362 ft | 0 kts | 30° |
| 2026-04-17 12:29 | 50.04704 | 8.57525 | 363 ft | 2 kts | 29° |
| 2026-04-17 12:30 | 50.04690 | 8.57513 | 363 ft | 2 kts | 28° |
| 2026-04-17 12:30 | 50.04675 | 8.57501 | 363 ft | 2 kts | 26° |
| 2026-04-17 12:30 | 50.04660 | 8.57489 | 362 ft | 2 kts | 17° |
| 2026-04-17 12:30 | 50.04644 | 8.57484 | 362 ft | 2 kts | 5° |
| 2026-04-17 12:31 | 50.04628 | 8.57483 | 362 ft | 2 kts | 357° |
| 2026-04-17 12:31 | 50.04612 | 8.57486 | 357 ft | 2 kts | 334° |
| 2026-04-17 12:31 | 50.04597 | 8.57497 | 361 ft | 2 kts | 338° |
| 2026-04-17 12:31 | 50.04581 | 8.57506 | 360 ft | 2 kts | 339° |
| 2026-04-17 12:32 | 50.04566 | 8.57515 | 360 ft | 2 kts | 339° |
| 2026-04-17 12:32 | 50.04551 | 8.57524 | 359 ft | 2 kts | 339° |
| 2026-04-17 12:32 | 50.04536 | 8.57534 | 359 ft | 2 kts | 335° |
| 2026-04-17 12:32 | 50.04532 | 8.57537 | 359 ft | 0 kts | 336° |
| 2026-04-17 12:35 | 50.04545 | 8.57528 | 359 ft | 6 kts | 336° |
| 2026-04-17 12:35 | 50.04588 | 8.57508 | 361 ft | 6 kts | 1° |
| 2026-04-17 12:35 | 50.04621 | 8.57551 | 358 ft | 7 kts | 59° |
| 2026-04-17 12:37 | 50.04569 | 8.58055 | 354 ft | 13 kts | 128° |
| 2026-04-17 12:37 | 50.04581 | 8.58180 | 351 ft | 10 kts | 69° |
| 2026-04-17 12:38 | 50.04605 | 8.58277 | 350 ft | 10 kts | 70° |
| 2026-04-17 12:38 | 50.04624 | 8.58360 | 345 ft | 5 kts | 70° |
| 2026-04-17 12:38 | 50.04637 | 8.58414 | 337 ft | 6 kts | 69° |
| 2026-04-17 12:38 | 50.04656 | 8.58491 | 334 ft | 9 kts | 70° |
| 2026-04-17 12:39 | 50.04627 | 8.58568 | 331 ft | 7 kts | 157° |
| 2026-04-17 12:39 | 50.04605 | 8.58582 | 329 ft | 2 kts | 158° |
| 2026-04-17 12:39 | 50.04604 | 8.58583 | 327 ft | 0 kts | 158° |
| 2026-04-17 12:41 | 50.04592 | 8.58590 | 328 ft | 6 kts | 158° |
| 2026-04-17 12:42 | 50.04551 | 8.58615 | 329 ft | 6 kts | 159° |
| 2026-04-17 12:42 | 50.04509 | 8.58628 | 330 ft | 6 kts | 195° |
| 2026-04-17 12:42 | 50.04486 | 8.58576 | 331 ft | 0 kts | 247° |
| 2026-04-17 12:43 | 50.04478 | 8.58546 | 331 ft | 11 kts | 248° |
| 2026-04-17 12:43 | 50.04388 | 8.58169 | 335 ft | 72 kts | 250° |
| 2026-04-17 12:43 | 50.04133 | 8.57107 | 361 ft | 138 kts | 250° |
| 2026-04-17 12:43 | 50.03731 | 8.55411 | 366 ft | 194 kts | 251° |
| 2026-04-17 12:44 | 50.03201 | 8.53349 | 646 ft | 210 kts | 249° |
| 2026-04-17 12:44 | 50.02654 | 8.51230 | 1110 ft | 212 kts | 244° |
| 2026-04-17 12:44 | 50.01687 | 8.49581 | 1699 ft | 208 kts | 207° |
| 2026-04-17 12:44 | 50.00298 | 8.48859 | 2129 ft | 215 kts | 193° |
| 2026-04-17 12:45 | 49.98768 | 8.48935 | 2212 ft | 231 kts | 158° |
| 2026-04-17 12:45 | 49.97463 | 8.50430 | 2505 ft | 240 kts | 127° |
| 2026-04-17 12:45 | 49.96551 | 8.52642 | 2908 ft | 247 kts | 121° |
| 2026-04-17 12:45 | 49.95703 | 8.55001 | 3387 ft | 254 kts | 119° |
| 2026-04-17 12:46 | 49.94845 | 8.57477 | 3748 ft | 265 kts | 120° |
| 2026-04-17 12:46 | 49.94068 | 8.60102 | 4162 ft | 272 kts | 103° |
| 2026-04-17 12:46 | 49.93856 | 8.63058 | 4540 ft | 278 kts | 94° |
| 2026-04-17 12:46 | 49.93770 | 8.66034 | 5209 ft | 275 kts | 93° |
| 2026-04-17 12:47 | 49.93551 | 8.68971 | 5709 ft | 276 kts | 113° |
| 2026-04-17 12:47 | 49.92443 | 8.71348 | 6131 ft | 275 kts | 146° |
| 2026-04-17 12:47 | 49.90837 | 8.72939 | 6621 ft | 276 kts | 148° |
| 2026-04-17 12:47 | 49.89231 | 8.74605 | 7168 ft | 277 kts | 146° |
| 2026-04-17 12:48 | 49.87859 | 8.76702 | 7541 ft | 282 kts | 121° |
| 2026-04-17 12:48 | 49.86959 | 8.79429 | 7973 ft | 286 kts | 118° |
| 2026-04-17 12:48 | 49.86023 | 8.82163 | 8540 ft | 288 kts | 120° |
| 2026-04-17 12:48 | 49.85062 | 8.84841 | 9149 ft | 288 kts | 120° |
| 2026-04-17 12:49 | 49.84074 | 8.87562 | 9727 ft | 290 kts | 120° |
| 2026-04-17 12:49 | 49.83077 | 8.90304 | 10234 ft | 294 kts | 120° |
| 2026-04-17 12:49 | 49.82057 | 8.93110 | 10523 ft | 307 kts | 120° |
| 2026-04-17 12:49 | 49.80978 | 8.96072 | 10645 ft | 325 kts | 120° |
| 2026-04-17 12:50 | 49.79838 | 8.99207 | 10792 ft | 344 kts | 120° |
| 2026-04-17 12:50 | 49.78632 | 9.02517 | 10947 ft | 362 kts | 120° |
| 2026-04-17 12:50 | 49.77369 | 9.05978 | 11293 ft | 374 kts | 120° |
| 2026-04-17 12:50 | 49.76111 | 9.09554 | 11689 ft | 382 kts | 114° |
| 2026-04-17 12:51 | 49.75296 | 9.13499 | 12170 ft | 388 kts | 103° |
| 2026-04-17 12:51 | 49.74727 | 9.17595 | 12883 ft | 391 kts | 102° |
| 2026-04-17 12:51 | 49.74146 | 9.21720 | 13613 ft | 395 kts | 103° |
| 2026-04-17 12:51 | 49.73589 | 9.25885 | 14185 ft | 398 kts | 96° |
| 2026-04-17 12:52 | 49.73609 | 9.30184 | 14705 ft | 404 kts | 80° |
| 2026-04-17 12:52 | 49.74333 | 9.34327 | 15349 ft | 405 kts | 67° |
| 2026-04-17 12:52 | 49.75405 | 9.38352 | 15879 ft | 408 kts | 67° |
| 2026-04-17 12:52 | 49.76453 | 9.42473 | 16444 ft | 413 kts | 68° |
| 2026-04-17 12:53 | 49.77482 | 9.46643 | 17036 ft | 417 kts | 68° |
| 2026-04-17 12:53 | 49.78510 | 9.50855 | 17681 ft | 420 kts | 68° |
| 2026-04-17 12:53 | 49.79544 | 9.55104 | 18292 ft | 424 kts | 68° |
| 2026-04-17 12:53 | 49.80587 | 9.59398 | 18823 ft | 428 kts | 68° |
| 2026-04-17 12:54 | 49.81637 | 9.63723 | 19348 ft | 431 kts | 68° |
| 2026-04-17 12:54 | 49.82697 | 9.68093 | 19889 ft | 434 kts | 68° |
| 2026-04-17 12:54 | 49.83760 | 9.72483 | 20421 ft | 437 kts | 68° |
| 2026-04-17 12:54 | 49.84828 | 9.76904 | 20933 ft | 440 kts | 68° |
| 2026-04-17 12:55 | 49.85906 | 9.81370 | 21442 ft | 444 kts | 68° |
| 2026-04-17 12:55 | 49.86987 | 9.85862 | 21923 ft | 447 kts | 68° |
| 2026-04-17 12:55 | 49.88078 | 9.90404 | 22430 ft | 450 kts | 68° |
| 2026-04-17 12:55 | 49.89173 | 9.94974 | 22923 ft | 453 kts | 68° |
| 2026-04-17 12:56 | 49.90274 | 9.99575 | 23393 ft | 457 kts | 68° |
| 2026-04-17 12:56 | 49.91380 | 10.04211 | 23856 ft | 460 kts | 67° |